createdAt,value
2022-10-06T03:56:21.244Z,12.14
2022-10-06T03:59:48.535Z,12.23
2022-10-06T04:03:20.424Z,12.30
2022-10-06T04:06:47.631Z,12.36
2022-10-06T04:10:18.365Z,12.42
2022-10-06T04:13:46.246Z,12.47
2022-10-06T04:17:13.085Z,12.53
2022-10-06T04:20:41.464Z,12.58
2022-10-06T04:24:10.710Z,12.63
2022-10-06T04:27:39.298Z,12.68
2022-10-06T04:31:17.112Z,12.70
2022-10-06T04:34:44.157Z,12.70
2022-10-06T04:38:11.525Z,12.68
2022-10-06T04:41:40.904Z,12.63
2022-10-06T04:45:11.646Z,12.57
2022-10-06T04:48:39.986Z,12.49
2022-10-06T04:52:07.303Z,12.43
2022-10-06T04:55:36.375Z,12.37
2022-10-06T04:59:04.934Z,12.30
2022-10-06T05:02:35.058Z,12.26
2022-10-06T05:06:11.543Z,12.21
2022-10-06T05:09:38.845Z,12.17
2022-10-06T05:13:06.307Z,12.14
2022-10-06T05:16:34.127Z,12.12
2022-10-06T05:20:01.232Z,12.11
2022-10-06T05:23:29.713Z,12.11
2022-10-06T05:27:00.837Z,12.13
2022-10-06T05:30:29.130Z,12.17
2022-10-06T05:33:56.540Z,12.20
2022-10-06T05:37:25.317Z,12.27
2022-10-06T05:40:52.668Z,12.42
2022-10-06T05:44:19.388Z,12.67
2022-10-06T05:47:46.404Z,13.03
2022-10-06T05:51:15.018Z,13.44
2022-10-06T05:54:42.021Z,13.99
2022-10-06T05:58:09.515Z,14.46
2022-10-06T06:01:40.033Z,14.73
2022-10-06T06:05:11.061Z,14.79
2022-10-06T06:08:37.839Z,14.76
2022-10-06T06:12:05.706Z,14.75
2022-10-06T06:16:06.234Z,14.69
2022-10-06T06:19:34.046Z,14.63
2022-10-06T06:23:01.132Z,14.61
2022-10-06T06:26:32.976Z,14.65
2022-10-06T06:29:59.724Z,14.73
2022-10-06T06:33:27.693Z,14.76
2022-10-06T06:36:56.054Z,14.79
2022-10-06T06:40:22.714Z,14.80
2022-10-06T06:43:53.000Z,14.81
2022-10-06T06:47:29.833Z,14.83
2022-10-06T06:51:01.443Z,14.84
2022-10-06T06:54:30.980Z,14.86
2022-10-06T06:58:09.054Z,14.91
2022-10-06T07:01:36.460Z,14.96
2022-10-06T07:05:03.410Z,15.00
2022-10-06T07:08:31.441Z,15.03
2022-10-06T07:11:58.598Z,15.03
2022-10-06T07:15:43.612Z,15.06
2022-10-06T07:19:32.759Z,15.10
2022-10-06T07:23:17.424Z,15.18
2022-10-06T07:26:45.206Z,15.25
2022-10-06T07:30:15.067Z,15.31
2022-10-06T07:33:41.968Z,15.34
2022-10-06T07:37:09.559Z,15.35
2022-10-06T07:40:40.252Z,15.37
2022-10-06T07:44:13.543Z,15.44
2022-10-06T07:47:42.940Z,15.53
2022-10-06T07:51:15.469Z,15.65
2022-10-06T07:54:45.192Z,15.77
2022-10-06T07:58:24.141Z,15.87
2022-10-06T08:01:52.521Z,15.97
2022-10-06T08:05:19.523Z,16.09
2022-10-06T08:08:52.657Z,16.18
2022-10-06T08:12:37.920Z,16.26
2022-10-06T08:16:08.582Z,16.33
2022-10-06T08:19:35.267Z,16.42
2022-10-06T08:23:01.824Z,16.50
2022-10-06T08:26:31.044Z,16.58
2022-10-06T08:29:58.275Z,16.65
2022-10-06T08:33:24.835Z,16.73
2022-10-06T08:37:15.816Z,16.82
2022-10-06T08:40:38.791Z,16.94
2022-10-06T08:44:19.654Z,17.06
2022-10-06T08:47:57.645Z,17.23
2022-10-06T08:51:44.491Z,17.47
2022-10-06T08:55:19.987Z,17.70
2022-10-06T08:58:54.620Z,17.87
2022-10-06T09:02:32.436Z,17.99
2022-10-06T09:06:08.367Z,18.02
2022-10-06T09:09:51.935Z,17.98
2022-10-06T09:13:22.425Z,17.96
2022-10-06T09:16:53.891Z,17.92
2022-10-06T09:20:29.136Z,17.99
2022-10-06T09:24:02.560Z,18.12
2022-10-06T09:27:33.962Z,18.28
2022-10-06T09:31:04.457Z,18.44
2022-10-06T09:34:41.663Z,18.57
2022-10-06T09:38:09.446Z,18.65
2022-10-06T09:41:41.263Z,18.72
2022-10-06T09:45:29.082Z,18.77
2022-10-06T09:49:15.391Z,18.83
2022-10-06T09:52:44.217Z,18.89
2022-10-06T09:56:18.992Z,18.94
2022-10-06T09:59:48.641Z,19.06
2022-10-06T10:03:14.574Z,19.16
2022-10-06T10:06:41.817Z,19.26
2022-10-06T10:10:23.854Z,19.31
2022-10-06T10:13:56.805Z,19.55
2022-10-06T10:17:32.905Z,19.70
2022-10-06T10:21:05.155Z,19.80
2022-10-06T10:24:51.518Z,19.93
2022-10-06T10:28:50.947Z,19.99
2022-10-06T10:32:18.289Z,20.02
2022-10-06T10:35:51.196Z,20.14
2022-10-06T10:39:28.309Z,20.31
2022-10-06T10:43:03.349Z,20.44
2022-10-06T10:46:35.165Z,20.34
2022-10-06T10:50:08.597Z,20.11
2022-10-06T10:53:45.202Z,20.11
2022-10-06T10:57:17.710Z,20.25
2022-10-06T11:00:48.925Z,20.45
2022-10-06T11:04:16.795Z,20.48
2022-10-06T11:07:53.401Z,20.45
2022-10-06T11:11:29.994Z,20.32
2022-10-06T11:15:01.749Z,20.03
2022-10-06T11:18:41.435Z,19.92
2022-10-06T11:22:13.521Z,19.89
2022-10-06T11:25:48.256Z,20.04
2022-10-06T11:29:28.213Z,20.19
2022-10-06T11:33:04.794Z,20.27
2022-10-06T11:36:43.497Z,20.26
2022-10-06T11:40:29.336Z,20.28
2022-10-06T11:44:04.417Z,20.27
2022-10-06T11:47:36.466Z,20.19
2022-10-06T11:51:32.431Z,20.16
2022-10-06T11:55:14.426Z,20.15
2022-10-06T11:59:12.034Z,20.10
2022-10-06T12:02:41.511Z,20.05
2022-10-06T12:06:09.520Z,20.02
2022-10-06T12:09:52.272Z,20.01
2022-10-06T12:14:12.392Z,20.00
2022-10-06T12:17:21.619Z,20.04
2022-10-06T12:20:59.588Z,20.07
2022-10-06T12:24:42.978Z,20.07
2022-10-06T12:28:22.855Z,20.02
2022-10-06T12:32:01.645Z,20.02
2022-10-06T12:35:33.803Z,20.02
2022-10-06T12:39:24.463Z,19.99
2022-10-06T12:42:51.050Z,19.98
2022-10-06T12:46:25.105Z,19.98
2022-10-06T12:49:55.590Z,19.97
2022-10-06T12:53:32.602Z,19.94
2022-10-06T12:57:01.299Z,19.87
2022-10-06T13:00:34.927Z,19.88
2022-10-06T13:04:02.200Z,19.89
2022-10-06T13:07:30.622Z,19.82
2022-10-06T13:11:20.940Z,19.82
2022-10-06T13:14:48.859Z,19.85
2022-10-06T13:18:18.556Z,19.89
2022-10-06T13:21:45.799Z,19.90
2022-10-06T13:25:16.692Z,19.87
2022-10-06T13:28:51.892Z,19.80
2022-10-06T13:32:20.769Z,19.73
2022-10-06T13:35:49.156Z,19.64
2022-10-06T13:39:18.466Z,19.61
2022-10-06T13:42:48.799Z,19.59
2022-10-06T13:46:18.577Z,19.59
2022-10-06T13:49:50.410Z,19.59
2022-10-06T13:53:32.707Z,19.55
2022-10-06T13:57:00.215Z,19.52
2022-10-06T14:00:28.643Z,19.45
2022-10-06T14:04:14.203Z,19.34
2022-10-06T14:07:45.944Z,19.25
2022-10-06T14:11:13.234Z,19.19
2022-10-06T14:14:40.956Z,19.11
2022-10-06T14:18:07.943Z,19.05
2022-10-06T14:21:41.880Z,19.01
2022-10-06T14:25:15.307Z,18.98
2022-10-06T14:28:46.516Z,18.93
2022-10-06T14:32:18.413Z,18.86
2022-10-06T14:35:45.558Z,18.77
2022-10-06T14:39:15.404Z,18.68
2022-10-06T14:42:42.100Z,18.58
2022-10-06T14:46:14.443Z,18.50
2022-10-06T14:49:41.250Z,18.41
2022-10-06T14:53:39.963Z,18.37
2022-10-06T14:57:06.594Z,18.29
2022-10-06T15:00:33.705Z,18.20
2022-10-06T15:04:02.906Z,18.09
2022-10-06T15:07:47.561Z,17.98
2022-10-06T15:11:14.900Z,17.88
2022-10-06T15:14:41.730Z,17.80
2022-10-06T15:18:08.890Z,17.71
2022-10-06T15:21:39.856Z,17.64
2022-10-06T15:25:08.039Z,17.55
2022-10-06T15:28:54.007Z,17.44
2022-10-06T15:32:20.786Z,17.34
2022-10-06T15:36:00.867Z,17.23
2022-10-06T15:39:30.169Z,17.10
2022-10-06T15:42:57.801Z,16.97
2022-10-06T15:46:27.088Z,16.83
2022-10-06T15:49:53.897Z,16.67
2022-10-06T15:53:22.526Z,16.50
2022-10-06T15:56:50.100Z,16.34
2022-10-06T16:00:18.221Z,16.17
2022-10-06T16:03:44.854Z,15.99
2022-10-06T16:07:14.232Z,15.78
2022-10-06T16:10:41.006Z,15.56
2022-10-06T16:14:08.563Z,15.33
2022-10-06T16:17:35.531Z,15.11
2022-10-06T16:21:02.385Z,14.90
2022-10-06T16:24:29.468Z,14.68
2022-10-06T16:27:56.509Z,14.48
2022-10-06T16:31:23.735Z,14.28
2022-10-06T16:34:50.767Z,14.08
2022-10-06T16:38:17.396Z,13.91
2022-10-06T16:41:44.503Z,13.75
2022-10-06T16:45:14.580Z,13.59
2022-10-06T16:48:42.825Z,13.42
2022-10-06T16:52:09.520Z,13.24
2022-10-06T16:55:36.826Z,13.06
2022-10-06T16:59:05.687Z,12.88
2022-10-06T17:02:34.029Z,12.71
2022-10-06T17:06:10.774Z,12.56
2022-10-06T17:09:37.444Z,12.42
2022-10-06T17:13:04.159Z,12.29
2022-10-06T17:16:33.803Z,12.16
2022-10-06T17:20:00.865Z,12.03
2022-10-06T17:23:29.025Z,11.92
2022-10-06T17:34:56.201Z,11.66
2022-10-06T17:38:23.254Z,11.55
2022-10-06T17:41:51.511Z,11.46
2022-10-06T17:45:21.284Z,11.37
2022-10-06T17:48:50.119Z,11.26
2022-10-06T17:52:21.829Z,11.15
2022-10-06T17:55:50.912Z,11.04
2022-10-06T17:59:22.201Z,10.96
2022-10-06T18:02:48.968Z,10.89
2022-10-06T18:06:18.318Z,10.84
2022-10-06T18:10:04.482Z,10.77
2022-10-06T18:13:32.117Z,10.71
2022-10-06T18:17:00.853Z,10.63
2022-10-06T18:20:30.970Z,10.56
2022-10-06T18:23:57.670Z,10.48
2022-10-06T18:27:24.529Z,10.41
2022-10-06T18:30:53.647Z,10.33
2022-10-06T18:38:07.992Z,10.15
2022-10-06T18:41:36.783Z,10.11
2022-10-06T18:45:21.368Z,10.06
2022-10-06T18:48:58.333Z,10.00
2022-10-06T18:52:25.192Z,9.93
2022-10-06T18:55:53.935Z,9.87
2022-10-06T18:59:23.489Z,9.81
2022-10-06T19:02:56.223Z,9.75
2022-10-06T19:06:25.401Z,9.68
2022-10-06T19:09:51.991Z,9.62
2022-10-06T19:13:21.428Z,9.55
2022-10-06T19:16:49.005Z,9.49
2022-10-06T19:20:16.751Z,9.44
2022-10-06T19:23:43.931Z,9.40
2022-10-06T19:27:12.871Z,9.34
2022-10-06T19:30:39.726Z,9.28
2022-10-06T19:34:08.675Z,9.21
2022-10-06T19:37:36.273Z,9.16
2022-10-06T19:41:18.728Z,9.10
2022-10-06T19:44:47.150Z,9.05
2022-10-06T19:48:14.114Z,9.00
2022-10-06T19:51:41.660Z,8.96
2022-10-06T19:55:10.065Z,8.92
2022-10-06T19:58:37.200Z,8.88
2022-10-06T20:02:07.842Z,8.84
2022-10-06T20:05:38.496Z,8.79
2022-10-06T20:09:08.923Z,8.73
2022-10-06T20:12:36.099Z,8.67
2022-10-06T20:16:05.814Z,8.60
2022-10-06T20:19:32.561Z,8.53
2022-10-06T20:22:59.258Z,8.46
2022-10-06T20:26:32.270Z,8.41
2022-10-06T20:29:59.226Z,8.35
2022-10-06T20:33:25.919Z,8.28
2022-10-06T20:36:55.844Z,8.23
2022-10-06T20:40:43.587Z,8.19
2022-10-06T20:44:10.936Z,8.13
2022-10-06T20:47:37.744Z,8.09
2022-10-06T20:51:10.041Z,8.04
2022-10-06T20:54:37.589Z,7.99
2022-10-06T20:58:04.223Z,7.94
2022-10-06T21:01:31.346Z,7.88
2022-10-06T21:04:58.972Z,7.80
2022-10-06T21:08:25.836Z,7.74
2022-10-06T21:11:52.657Z,7.69
2022-10-06T21:15:19.273Z,7.63
2022-10-06T21:18:47.076Z,7.56
2022-10-06T21:22:13.629Z,7.49
2022-10-06T21:25:40.524Z,7.44
2022-10-06T21:29:07.492Z,7.40
2022-10-06T21:32:34.363Z,7.38
2022-10-06T21:36:14.833Z,7.34
2022-10-06T21:39:42.208Z,7.29
2022-10-06T21:43:08.853Z,7.24
2022-10-06T21:46:37.550Z,7.22
2022-10-06T21:50:04.460Z,7.19
2022-10-06T21:53:33.116Z,7.19
2022-10-06T21:57:00.221Z,7.18
2022-10-06T22:00:27.039Z,7.15
2022-10-06T22:03:54.330Z,7.12
2022-10-06T22:07:20.883Z,7.10
2022-10-06T22:10:47.991Z,7.08
2022-10-06T22:14:16.177Z,7.06
2022-10-06T22:17:43.063Z,7.03
2022-10-06T22:21:19.781Z,6.98
2022-10-06T22:24:46.718Z,6.94
2022-10-06T22:28:13.311Z,6.91
2022-10-06T22:31:42.857Z,6.89
2022-10-06T22:35:11.177Z,6.85
2022-10-06T22:38:38.061Z,6.81
2022-10-06T22:42:05.010Z,6.76
2022-10-06T22:45:31.925Z,6.75
2022-10-06T22:48:58.635Z,6.74
